createdAt,value
2019-03-18T00:00:31.483Z,98355.94
2019-03-18T00:02:35.264Z,98366.09
2019-03-18T00:04:39.203Z,98365.31
2019-03-18T00:06:42.894Z,98362.25
2019-03-18T00:08:46.755Z,98363.71
2019-03-18T00:10:51.524Z,98362.59
2019-03-18T00:12:55.299Z,98368.18
2019-03-18T00:15:01.398Z,98387.20
2019-03-18T00:17:04.625Z,98391.80
2019-03-18T00:19:08.490Z,98388.59
2019-03-18T17:46:31.653Z,98959.38
2019-03-18T17:48:35.421Z,98962.50
2019-03-18T17:50:42.357Z,98962.41
2019-03-18T17:52:46.736Z,98971.13
2019-03-18T17:54:52.463Z,98973.03
2019-03-18T17:57:06.753Z,98986.75
2019-03-18T17:59:02.853Z,98994.42
2019-03-18T18:01:06.695Z,98997.45
2019-03-18T18:03:11.508Z,98996.62
2019-03-18T18:05:16.501Z,98993.62
2019-03-18T18:07:20.360Z,98999.94
2019-03-18T18:09:24.116Z,99000.26
2019-03-18T18:11:28.083Z,99001.84
2019-03-18T18:13:32.837Z,99005.89
2019-03-18T18:15:36.895Z,99015.36
2019-03-18T18:17:42.790Z,99019.42
2019-03-18T18:19:46.635Z,99024.09
2019-03-18T18:21:51.441Z,99023.77
2019-03-18T18:23:55.245Z,99032.01
2019-03-18T18:25:59.107Z,99032.73
2019-03-18T18:28:02.851Z,99039.27
2019-03-18T18:30:08.350Z,99033.96
2019-03-18T18:32:12.114Z,99034.57
2019-03-18T18:34:15.917Z,99032.17
2019-03-18T18:36:19.717Z,99034.96
2019-03-18T18:38:23.520Z,99036.53
2019-03-18T18:40:27.446Z,99041.39
2019-03-18T18:42:31.233Z,99043.88
2019-03-18T18:44:35.031Z,99050.70
2019-03-18T18:46:38.947Z,99055.88
2019-03-18T18:48:42.764Z,99055.66
2019-03-18T18:57:59.589Z,99078.89
2019-03-18T19:00:03.575Z,99074.09
2019-03-18T19:02:07.608Z,99076.33
2019-03-18T19:04:15.515Z,99081.16
2019-03-18T19:06:19.537Z,99084.98
2019-03-18T19:08:23.339Z,99083.17
2019-03-18T19:10:27.167Z,99089.00
2019-03-18T19:12:30.938Z,99085.97
2019-03-18T19:14:34.744Z,99087.83
2019-03-18T19:16:38.531Z,99092.50
2019-03-18T19:18:42.335Z,99096.16
2019-03-18T19:20:46.159Z,99096.28
2019-03-18T19:22:50.170Z,99092.68
2019-03-18T19:24:54.050Z,99098.31
2019-03-18T19:26:57.897Z,99103.62
2019-03-18T19:29:01.674Z,99095.52
2019-03-18T19:31:06.501Z,99095.84
2019-03-18T19:33:10.326Z,99097.80
2019-03-18T19:35:14.155Z,99104.83
2019-03-18T19:37:18.013Z,99098.86
2019-03-18T19:39:21.798Z,99103.91
2019-03-18T19:41:25.700Z,99101.30
2019-03-18T19:43:29.416Z,99107.92
2019-03-18T19:45:33.238Z,99113.32
2019-03-18T19:48:13.434Z,99110.23
2019-03-18T19:50:18.036Z,99112.12
2019-03-18T19:52:22.847Z,99112.48
2019-03-18T19:54:26.651Z,99116.58
2019-03-18T19:56:30.528Z,99123.23
2019-03-18T19:58:34.255Z,99127.02
2019-03-18T20:00:37.990Z,99132.77
2019-03-18T20:02:42.113Z,99137.23
2019-03-18T20:04:45.956Z,99142.87
2019-03-18T20:06:49.793Z,99139.66
2019-03-18T20:08:53.651Z,99136.11
2019-03-18T20:11:27.870Z,99136.61
2019-03-18T20:13:31.682Z,99135.95
2019-03-18T20:15:35.510Z,99142.41
2019-03-18T20:17:39.358Z,99145.80
2019-03-18T20:19:44.018Z,99150.30
2019-03-18T20:21:48.274Z,99157.52
2019-03-18T20:24:00.327Z,99165.88
2019-03-18T20:25:58.677Z,99166.80
2019-03-18T20:28:02.784Z,99168.78
2019-03-18T20:30:11.948Z,99170.34
2019-03-18T20:32:15.791Z,99168.98
2019-03-18T20:34:21.485Z,99171.15
2019-03-18T20:36:25.176Z,99178.09
2019-03-18T20:38:30.003Z,99181.00
2019-03-18T20:40:33.768Z,99178.36
2019-03-18T20:42:37.616Z,99186.84
2019-03-18T20:44:42.420Z,99189.62
2019-03-18T20:46:46.279Z,99191.09
2019-03-18T20:48:50.038Z,99184.30
2019-03-18T20:50:56.537Z,99184.89
2019-03-18T20:52:59.492Z,99186.80
2019-03-18T20:55:04.790Z,99184.34
2019-03-18T20:57:08.638Z,99182.44
2019-03-18T20:59:13.447Z,99185.52
2019-03-18T21:01:17.273Z,99188.92
2019-03-18T21:03:21.146Z,99192.77
2019-03-18T21:05:25.610Z,99196.77
2019-03-18T21:07:30.439Z,99193.78
2019-03-18T21:09:35.968Z,99195.59
2019-03-18T21:11:39.731Z,99194.38
2019-03-18T21:15:53.715Z,99189.11
2019-03-18T21:17:57.588Z,99191.94
2019-03-18T21:20:01.411Z,99192.31
2019-03-18T21:22:05.311Z,99195.59
2019-03-18T21:24:10.173Z,99202.08
2019-03-18T21:26:13.963Z,99208.89
2019-03-18T21:31:21.247Z,99211.88
2019-03-18T21:33:25.073Z,99217.41
2019-03-18T21:35:28.852Z,99217.15
2019-03-18T21:37:33.784Z,99214.86
2019-03-18T21:39:37.614Z,99213.45
2019-03-18T21:41:43.449Z,99217.73
2019-03-18T21:43:47.257Z,99211.44
2019-03-18T21:45:52.048Z,99216.55
2019-03-18T21:47:55.947Z,99216.61
2019-03-18T21:50:05.897Z,99212.30
2019-03-18T21:52:09.652Z,99216.87
2019-03-18T21:54:13.399Z,99218.80
2019-03-18T21:56:17.192Z,99224.55
2019-03-18T21:58:20.914Z,99227.80
2019-03-18T22:00:24.764Z,99229.22
2019-03-18T22:05:07.363Z,99229.77
2019-03-18T22:07:11.123Z,99234.18
2019-03-18T22:09:14.834Z,99242.95
2019-03-18T22:11:18.565Z,99245.51
2019-03-18T22:13:22.303Z,99247.22
2019-03-18T22:15:26.077Z,99248.73
2019-03-18T22:17:29.890Z,99249.56
2019-03-18T22:19:33.605Z,99248.92
2019-03-18T22:21:37.316Z,99249.28
2019-03-18T22:23:41.059Z,99251.53
2019-03-18T22:28:24.301Z,99249.27
2019-03-18T22:30:27.996Z,99259.75
2019-03-18T22:32:31.836Z,99257.61
2019-03-18T22:34:35.584Z,99265.00
2019-03-18T22:36:39.295Z,99273.08
2019-03-18T22:38:43.039Z,99272.41
2019-03-18T22:40:46.737Z,99276.20
2019-03-18T22:42:50.527Z,99272.48
2019-03-18T22:44:54.269Z,99270.75
2019-03-18T22:46:57.975Z,99265.70
2019-03-18T22:49:01.707Z,99263.35
2019-03-18T22:51:05.427Z,99265.37
2019-03-18T22:53:09.237Z,99271.14
2019-03-18T22:55:13.114Z,99272.31
2019-03-18T22:57:16.816Z,99274.50
2019-03-18T22:59:20.546Z,99273.16
2019-03-18T23:01:25.866Z,99271.50
2019-03-18T23:03:29.679Z,99261.55
2019-03-18T23:05:33.548Z,99269.62
2019-03-18T23:07:37.252Z,99263.38
2019-03-18T23:09:40.980Z,99259.13
2019-03-18T23:11:44.769Z,99261.23
2019-03-18T23:13:48.522Z,99270.55
2019-03-18T23:15:52.259Z,99269.77
2019-03-18T23:17:55.969Z,99273.21
2019-03-18T23:19:59.696Z,99268.89
2019-03-18T23:22:03.401Z,99267.12
2019-03-18T23:24:07.172Z,99262.68
2019-03-18T23:26:10.878Z,99263.77
2019-03-18T23:28:14.660Z,99272.66
2019-03-18T23:30:20.020Z,99269.13
2019-03-18T23:32:23.774Z,99263.02
2019-03-18T23:34:27.500Z,99268.22
2019-03-18T23:36:31.256Z,99267.71
2019-03-18T23:38:34.986Z,99258.84
2019-03-18T23:40:38.778Z,99261.47
2019-03-18T23:42:42.595Z,99265.09
2019-03-18T23:44:46.322Z,99261.29
2019-03-18T23:46:50.045Z,99268.89
2019-03-18T23:48:54.293Z,99270.80
2019-03-18T23:50:58.001Z,99273.02
2019-03-18T23:53:01.706Z,99270.72
2019-03-18T23:55:17.821Z,99283.70
2019-03-18T23:57:12.066Z,99282.22
2019-03-18T23:59:15.789Z,99277.56
